Time;durP1;ratioP1;P1;durP2;ratioP2;P2;SDS_P1;SDS_P2;PMS_P1;PMS_P2;Temp;Humidity;BMP_temperature;BMP_pressure;BME280_temperature;BME280_humidity;BME280_pressure;Samples;Min_cycle;Max_cycle;Signal;HPM_P1;HPM_P2
2022/08/10 00:00:30;;;;;;;9.80;6.93;;;;;;;;;;4960171;28;20170;-45
2022/08/10 00:02:58;;;;;;;9.47;6.60;;;;;;;;;;4961874;28;20594;-45
2022/08/10 00:05:24;;;;;;;7.73;6.30;;;;;;;;;;4957294;28;20547;-45
2022/08/10 00:07:51;;;;;;;6.70;6.07;;;;;;;;;;4954942;28;20276;-45
2022/08/10 00:10:18;;;;;;;6.60;5.90;;;;;;;;;;4960525;28;20253;-45
2022/08/10 00:12:44;;;;;;;9.83;6.47;;;;;;;;;;4958528;28;22050;-45
2022/08/10 00:15:12;;;;;;;6.10;5.30;;;;;;;;;;4956846;28;20178;-45
2022/08/10 00:17:38;;;;;;;6.83;6.10;;;;;;;;;;4958887;28;20737;-45
2022/08/10 00:20:05;;;;;;;6.10;5.50;;;;;;;;;;4958031;28;20461;-45
2022/08/10 00:22:31;;;;;;;6.70;5.97;;;;;;;;;;4956495;28;20646;-45
2022/08/10 00:24:57;;;;;;;6.40;5.80;;;;;;;;;;4956534;28;20607;-45
2022/08/10 00:27:23;;;;;;;6.13;5.53;;;;;;;;;;4960544;28;20189;-44
2022/08/10 00:29:50;;;;;;;7.57;5.90;;;;;;;;;;4957493;28;20657;-44
2022/08/10 00:32:16;;;;;;;8.73;6.10;;;;;;;;;;4958793;28;20557;-44
2022/08/10 00:34:42;;;;;;;8.07;5.90;;;;;;;;;;4960374;28;20170;-44
2022/08/10 00:37:08;;;;;;;7.47;6.00;;;;;;;;;;4956006;28;20626;-45
2022/08/10 00:39:34;;;;;;;6.60;5.60;;;;;;;;;;4958627;28;20202;-44
2022/08/10 00:42:00;;;;;;;8.20;5.50;;;;;;;;;;4958449;28;20193;-44
2022/08/10 00:44:26;;;;;;;6.77;6.00;;;;;;;;;;4955797;28;20182;-44
2022/08/10 00:46:53;;;;;;;9.10;6.30;;;;;;;;;;4957023;28;20252;-44
2022/08/10 00:49:19;;;;;;;7.53;6.10;;;;;;;;;;4961239;28;20174;-44
2022/08/10 00:51:45;;;;;;;8.13;5.90;;;;;;;;;;4956659;28;20205;-44
2022/08/10 00:54:11;;;;;;;8.43;6.03;;;;;;;;;;4954976;28;20454;-44
2022/08/10 00:56:37;;;;;;;6.80;5.80;;;;;;;;;;4972309;28;21072;-44
2022/08/10 00:59:03;;;;;;;6.83;6.17;;;;;;;;;;4955170;28;20174;-44
2022/08/10 01:01:29;;;;;;;7.73;6.13;;;;;;;;;;4954545;28;20185;-44
2022/08/10 01:03:55;;;;;;;6.07;5.47;;;;;;;;;;4959397;28;20161;-44
2022/08/10 01:06:27;;;;;;;9.13;6.27;;;;;;;;;;4955683;28;20180;-44
2022/08/10 01:08:59;;;;;;;6.23;5.40;;;;;;;;;;4953999;28;20177;-44
2022/08/10 01:11:34;;;;;;;6.67;5.97;;;;;;;;;;4973181;28;20625;-44
2022/08/10 01:14:07;;;;;;;7.00;6.30;;;;;;;;;;4954278;28;20288;-44
2022/08/10 01:16:47;;;;;;;8.43;6.00;;;;;;;;;;4952843;28;20434;-44
2022/08/10 01:19:28;;;;;;;7.60;5.53;;;;;;;;;;4955968;28;20174;-44
2022/08/10 01:22:04;;;;;;;6.90;5.90;;;;;;;;;;4968853;28;20985;-45
2022/08/10 01:24:39;;;;;;;7.80;5.90;;;;;;;;;;4955256;28;20174;-44
2022/08/10 01:27:24;;;;;;;7.00;6.10;;;;;;;;;;4954870;28;20174;-44
2022/08/10 01:30:01;;;;;;;7.37;6.47;;;;;;;;;;4955133;28;20202;-44
2022/08/10 01:32:53;;;;;;;8.90;6.03;;;;;;;;;;4959661;28;20711;-44
2022/08/10 01:35:24;;;;;;;6.37;5.77;;;;;;;;;;4938541;28;20723;-45
2022/08/10 01:38:03;;;;;;;6.97;6.00;;;;;;;;;;4955377;28;20497;-44
2022/08/10 01:40:32;;;;;;;6.27;5.60;;;;;;;;;;4957578;28;20575;-44
2022/08/10 01:42:58;;;;;;;7.27;5.60;;;;;;;;;;4953148;28;20189;-44
2022/08/10 01:45:26;;;;;;;7.00;6.30;;;;;;;;;;4955073;28;20441;-44
2022/08/10 01:50:49;;;;;;;7.23;6.07;;;;;;;;;;4956376;28;20212;-44
2022/08/10 01:53:19;;;;;;;6.50;5.90;;;;;;;;;;4953799;28;20166;-44
2022/08/10 01:55:46;;;;;;;9.63;5.43;;;;;;;;;;4958057;28;20198;-44
2022/08/10 01:58:15;;;;;;;8.63;5.80;;;;;;;;;;4952830;28;21087;-45
2022/08/10 02:00:44;;;;;;;6.53;5.87;;;;;;;;;;4953533;28;20599;-44
2022/08/10 02:03:12;;;;;;;9.67;6.40;;;;;;;;;;4954971;28;20264;-44
2022/08/10 02:05:40;;;;;;;9.07;6.23;;;;;;;;;;4958289;28;20697;-44
2022/08/10 02:08:08;;;;;;;7.70;5.93;;;;;;;;;;4955561;28;20178;-44
2022/08/10 02:10:34;;;;;;;7.47;5.93;;;;;;;;;;4955907;28;20193;-44
2022/08/10 02:13:01;;;;;;;6.50;5.80;;;;;;;;;;4957911;28;20827;-44
2022/08/10 02:15:30;;;;;;;6.47;5.87;;;;;;;;;;4955010;28;20174;-44
2022/08/10 02:17:59;;;;;;;8.50;6.87;;;;;;;;;;4948865;28;20308;-44
2022/08/10 02:20:26;;;;;;;7.33;6.50;;;;;;;;;;4953255;28;20402;-44
2022/08/10 02:22:56;;;;;;;8.43;6.37;;;;;;;;;;4955465;28;20790;-44
2022/08/10 02:25:24;;;;;;;6.23;5.70;;;;;;;;;;4954044;28;20186;-44
2022/08/10 02:27:51;;;;;;;13.60;6.63;;;;;;;;;;4952447;28;20213;-44
2022/08/10 02:30:18;;;;;;;7.17;6.47;;;;;;;;;;4955360;28;20198;-44
2022/08/10 02:32:45;;;;;;;7.50;5.90;;;;;;;;;;4953984;28;20178;-44
2022/08/10 02:35:12;;;;;;;7.03;5.70;;;;;;;;;;4954657;28;20832;-44
2022/08/10 02:37:39;;;;;;;7.20;6.43;;;;;;;;;;4955670;28;20178;-44
2022/08/10 02:40:06;;;;;;;7.07;6.30;;;;;;;;;;4956323;28;20489;-44
2022/08/10 02:43:10;;;;;;;6.57;5.90;;;;;;;;;;4953704;28;20288;-42
2022/08/10 02:45:44;;;;;;;7.87;6.20;;;;;;;;;;4916265;28;20410;-44
2022/08/10 02:48:16;;;;;;;8.80;7.07;;;;;;;;;;4915835;28;20271;-44
2022/08/10 02:50:42;;;;;;;8.47;6.67;;;;;;;;;;4939959;28;20289;-44
2022/08/10 02:53:27;;;;;;;8.83;6.77;;;;;;;;;;4960091;28;20171;-44
2022/08/10 02:55:58;;;;;;;7.27;6.40;;;;;;;;;;4956989;28;20186;-44
2022/08/10 02:58:33;;;;;;;7.43;6.73;;;;;;;;;;4959919;28;20174;-44
2022/08/10 03:01:01;;;;;;;9.73;7.00;;;;;;;;;;4959297;28;20505;-45
2022/08/10 03:03:30;;;;;;;7.93;7.13;;;;;;;;;;4956153;28;20252;-45
2022/08/10 03:06:00;;;;;;;11.63;8.37;;;;;;;;;;4960284;28;20174;-45
2022/08/10 03:08:28;;;;;;;8.60;7.37;;;;;;;;;;4959741;28;20608;-45
2022/08/10 03:10:54;;;;;;;10.93;9.23;;;;;;;;;;4956583;28;20194;-45
2022/08/10 03:13:21;;;;;;;10.50;8.63;;;;;;;;;;4960386;28;20243;-45
2022/08/10 03:15:49;;;;;;;9.80;8.80;;;;;;;;;;4959804;28;20178;-45
2022/08/10 03:18:16;;;;;;;9.63;8.10;;;;;;;;;;4956900;28;20201;-44
2022/08/10 03:20:43;;;;;;;9.70;8.70;;;;;;;;;;4957476;28;20186;-43
2022/08/10 03:23:14;;;;;;;10.60;9.13;;;;;;;;;;4958733;28;20174;-44
2022/08/10 03:25:41;;;;;;;10.97;9.90;;;;;;;;;;4959499;28;20317;-44
2022/08/10 03:28:08;;;;;;;11.67;9.37;;;;;;;;;;4955957;28;20185;-45
2022/08/10 03:30:34;;;;;;;10.00;9.00;;;;;;;;;;4959646;28;20284;-44
2022/08/10 03:33:02;;;;;;;10.77;8.90;;;;;;;;;;4961658;28;20193;-45
2022/08/10 03:35:28;;;;;;;10.17;9.17;;;;;;;;;;4971114;28;20861;-44
2022/08/10 03:37:54;;;;;;;10.97;8.57;;;;;;;;;;4959628;28;20186;-44
2022/08/10 03:40:21;;;;;;;9.17;8.27;;;;;;;;;;4965967;28;20178;-44
2022/08/10 03:42:47;;;;;;;12.20;8.63;;;;;;;;;;4956434;28;20190;-44
2022/08/10 03:45:14;;;;;;;9.73;8.30;;;;;;;;;;4956653;28;20212;-44
2022/08/10 03:47:41;;;;;;;9.10;8.20;;;;;;;;;;4955729;28;20181;-44
2022/08/10 03:50:07;;;;;;;11.33;9.77;;;;;;;;;;4956729;28;20209;-44
2022/08/10 03:52:34;;;;;;;10.50;9.23;;;;;;;;;;4960081;28;20570;-44
2022/08/10 03:55:00;;;;;;;16.07;10.07;;;;;;;;;;4955351;28;20875;-44
2022/08/10 03:57:28;;;;;;;12.07;10.23;;;;;;;;;;4955211;28;20505;-45
2022/08/10 03:59:55;;;;;;;12.10;9.87;;;;;;;;;;4958859;28;20666;-44
2022/08/10 04:02:21;;;;;;;15.57;10.03;;;;;;;;;;4957806;28;20816;-45
2022/08/10 04:04:47;;;;;;;11.93;10.23;;;;;;;;;;4954899;28;20653;-44
2022/08/10 04:07:14;;;;;;;19.03;12.07;;;;;;;;;;4958654;28;20771;-44
2022/08/10 04:09:40;;;;;;;14.87;10.67;;;;;;;;;;4958887;28;20197;-45
2022/08/10 04:12:07;;;;;;;13.00;11.43;;;;;;;;;;4957879;28;20206;-45
2022/08/10 04:14:33;;;;;;;15.30;11.90;;;;;;;;;;4959842;28;20848;-45
2022/08/10 04:16:59;;;;;;;19.37;12.87;;;;;;;;;;4955893;28;20174;-45
2022/08/10 04:19:26;;;;;;;17.10;13.80;;;;;;;;;;4954367;28;20784;-46
2022/08/10 04:22:22;;;;;;;24.30;13.57;;;;;;;;;;4957346;28;20200;-46
2022/08/10 04:24:49;;;;;;;20.67;12.70;;;;;;;;;;4965247;28;20636;-45
2022/08/10 04:27:16;;;;;;;17.57;11.67;;;;;;;;;;4953482;28;20675;-46
2022/08/10 04:29:42;;;;;;;12.63;10.40;;;;;;;;;;4954484;28;20186;-45
2022/08/10 04:32:09;;;;;;;15.57;11.10;;;;;;;;;;4958338;28;20864;-45
2022/08/10 04:34:36;;;;;;;17.63;12.43;;;;;;;;;;4959326;28;20166;-45
2022/08/10 04:37:04;;;;;;;13.63;11.23;;;;;;;;;;4955274;28;20178;-45
2022/08/10 04:39:31;;;;;;;13.80;10.80;;;;;;;;;;4954794;28;20217;-46
2022/08/10 04:41:57;;;;;;;13.77;11.00;;;;;;;;;;4957143;28;20507;-45
2022/08/10 04:44:23;;;;;;;13.30;10.80;;;;;;;;;;4957502;28;20440;-46
2022/08/10 04:46:49;;;;;;;16.27;11.73;;;;;;;;;;4956698;28;20968;-45
2022/08/10 04:49:16;;;;;;;14.67;10.97;;;;;;;;;;4955055;28;20458;-46
2022/08/10 04:51:42;;;;;;;15.07;11.30;;;;;;;;;;4956355;28;20201;-45
2022/08/10 04:54:08;;;;;;;12.27;10.97;;;;;;;;;;4955117;28;20406;-45
2022/08/10 04:56:35;;;;;;;15.03;10.80;;;;;;;;;;4955015;28;20182;-45
2022/08/10 04:59:01;;;;;;;15.00;12.10;;;;;;;;;;4958247;28;20179;-45
2022/08/10 05:01:28;;;;;;;11.43;10.07;;;;;;;;;;4959976;28;20383;-45
2022/08/10 05:03:54;;;;;;;12.50;10.57;;;;;;;;;;4956751;28;20191;-45
2022/08/10 05:06:20;;;;;;;13.23;10.43;;;;;;;;;;4956972;28;20384;-45
2022/08/10 05:08:46;;;;;;;12.27;10.33;;;;;;;;;;4955165;28;20190;-45
2022/08/10 05:11:12;;;;;;;12.63;10.03;;;;;;;;;;4955968;28;20320;-46
2022/08/10 05:13:38;;;;;;;11.47;9.50;;;;;;;;;;4958009;28;20404;-45
2022/08/10 05:16:04;;;;;;;13.03;9.63;;;;;;;;;;4954219;28;20174;-45
2022/08/10 05:18:30;;;;;;;11.97;9.40;;;;;;;;;;4956189;28;20174;-45
2022/08/10 05:20:56;;;;;;;13.43;10.40;;;;;;;;;;4959208;28;20499;-45
2022/08/10 05:23:22;;;;;;;12.60;10.30;;;;;;;;;;4955226;28;20189;-45
2022/08/10 05:25:49;;;;;;;15.23;11.13;;;;;;;;;;4957233;28;20252;-45
2022/08/10 05:28:15;;;;;;;16.13;9.67;;;;;;;;;;4952397;28;20292;-45
2022/08/10 05:30:41;;;;;;;11.30;9.53;;;;;;;;;;4957300;28;20785;-45
2022/08/10 05:33:07;;;;;;;11.37;9.67;;;;;;;;;;4957776;28;20570;-45
2022/08/10 05:35:33;;;;;;;12.03;9.50;;;;;;;;;;4955592;28;20750;-45
2022/08/10 05:38:00;;;;;;;10.23;8.60;;;;;;;;;;4955978;28;20591;-45
2022/08/10 05:40:27;;;;;;;12.27;9.33;;;;;;;;;;4957999;28;20178;-45
2022/08/10 05:42:53;;;;;;;9.90;8.90;;;;;;;;;;4951342;28;20329;-45
2022/08/10 05:45:26;;;;;;;22.80;9.40;;;;;;;;;;4954594;28;20179;-45
2022/08/10 05:47:52;;;;;;;10.07;8.57;;;;;;;;;;4957222;28;20880;-45
2022/08/10 05:50:21;;;;;;;11.70;8.67;;;;;;;;;;4954281;28;20601;-45
2022/08/10 05:52:47;;;;;;;11.47;8.37;;;;;;;;;;4952575;28;20635;-45
2022/08/10 05:55:13;;;;;;;10.63;8.80;;;;;;;;;;4957074;28;20238;-45
2022/08/10 05:57:40;;;;;;;10.17;8.37;;;;;;;;;;4954684;28;20181;-45
2022/08/10 06:00:08;;;;;;;12.20;9.13;;;;;;;;;;4954813;28;20178;-45
2022/08/10 06:02:43;;;;;;;11.47;9.33;;;;;;;;;;4955989;28;20328;-45
2022/08/10 06:05:11;;;;;;;13.97;9.73;;;;;;;;;;4956586;28;20721;-45
2022/08/10 06:07:39;;;;;;;12.50;10.97;;;;;;;;;;4952159;28;20272;-45
2022/08/10 06:10:07;;;;;;;14.70;10.10;;;;;;;;;;4949607;28;20176;-45
2022/08/10 06:12:36;;;;;;;15.00;10.63;;;;;;;;;;4947630;28;20360;-45
2022/08/10 06:15:03;;;;;;;14.20;10.80;;;;;;;;;;4949499;28;20264;-45
2022/08/10 06:17:30;;;;;;;14.27;10.80;;;;;;;;;;4952517;28;20289;-45
2022/08/10 06:19:59;;;;;;;17.17;11.63;;;;;;;;;;4960512;28;20178;-44
2022/08/10 06:22:26;;;;;;;13.83;12.33;;;;;;;;;;4956817;28;20479;-45
2022/08/10 06:24:53;;;;;;;18.00;12.80;;;;;;;;;;4955878;28;20178;-45
2022/08/10 06:27:19;;;;;;;13.23;10.90;;;;;;;;;;4960828;28;20693;-45
2022/08/10 06:29:46;;;;;;;16.27;12.07;;;;;;;;;;4954718;28;20170;-45
2022/08/10 06:32:13;;;;;;;14.17;11.73;;;;;;;;;;4956571;28;20209;-45
2022/08/10 06:34:41;;;;;;;14.17;10.83;;;;;;;;;;4959711;28;20245;-45
2022/08/10 06:37:08;;;;;;;13.40;10.77;;;;;;;;;;4956534;28;20763;-45
2022/08/10 06:39:34;;;;;;;11.70;10.57;;;;;;;;;;4955223;28;20179;-45
2022/08/10 06:42:29;;;;;;;16.93;12.33;;;;;;;;;;4957547;28;20605;-45
2022/08/10 06:45:01;;;;;;;15.40;11.70;;;;;;;;;;4952713;28;20630;-45
2022/08/10 06:47:44;;;;;;;13.53;10.23;;;;;;;;;;4952900;28;21108;-45
2022/08/10 06:50:13;;;;;;;16.23;11.47;;;;;;;;;;4960798;28;20186;-45
2022/08/10 06:52:40;;;;;;;15.67;11.57;;;;;;;;;;4960946;28;20189;-45
2022/08/10 06:55:08;;;;;;;11.57;10.33;;;;;;;;;;4957728;28;20173;-45
2022/08/10 06:57:36;;;;;;;10.93;9.67;;;;;;;;;;4959422;28;20166;-45
2022/08/10 07:00:04;;;;;;;13.77;10.33;;;;;;;;;;4961579;28;20171;-45
2022/08/10 07:02:35;;;;;;;14.30;10.20;;;;;;;;;;4960144;28;20182;-45
2022/08/10 07:05:03;;;;;;;14.57;11.00;;;;;;;;;;4956497;28;20209;-45
2022/08/10 07:07:31;;;;;;;15.77;10.00;;;;;;;;;;4959002;28;20221;-45
2022/08/10 07:09:58;;;;;;;14.13;10.10;;;;;;;;;;4954556;28;20278;-45
2022/08/10 07:12:24;;;;;;;13.23;10.00;;;;;;;;;;4952238;28;20197;-45
2022/08/10 07:14:51;;;;;;;9.97;8.97;;;;;;;;;;4956228;28;20221;-45
2022/08/10 07:17:19;;;;;;;15.93;9.50;;;;;;;;;;4955857;28;20216;-44
2022/08/10 07:19:46;;;;;;;14.10;9.37;;;;;;;;;;4953125;28;20216;-45
2022/08/10 07:22:15;;;;;;;16.83;10.80;;;;;;;;;;4954572;28;20684;-45
2022/08/10 07:24:41;;;;;;;14.73;8.43;;;;;;;;;;4950598;28;20178;-44
2022/08/10 07:27:08;;;;;;;8.77;7.00;;;;;;;;;;4947406;28;20186;-44
2022/08/10 07:29:35;;;;;;;15.17;8.10;;;;;;;;;;4945203;28;20202;-45
2022/08/10 07:32:02;;;;;;;8.10;6.20;;;;;;;;;;4947453;28;21100;-44
2022/08/10 07:34:29;;;;;;;12.53;6.43;;;;;;;;;;4949279;28;20587;-44
2022/08/10 07:36:58;;;;;;;7.50;5.77;;;;;;;;;;4944421;28;20247;-44
2022/08/10 07:39:28;;;;;;;8.53;5.47;;;;;;;;;;4945734;28;20477;-44
2022/08/10 07:41:55;;;;;;;8.40;5.50;;;;;;;;;;4948530;28;20626;-45
2022/08/10 07:44:22;;;;;;;12.70;5.10;;;;;;;;;;4945969;28;20489;-45
2022/08/10 07:46:49;;;;;;;6.57;5.10;;;;;;;;;;4945611;28;20178;-45
2022/08/10 07:49:20;;;;;;;8.70;4.60;;;;;;;;;;4948041;28;20193;-45
2022/08/10 07:51:49;;;;;;;5.10;3.27;;;;;;;;;;4951512;28;21193;-44
2022/08/10 07:54:15;;;;;;;9.27;3.67;;;;;;;;;;4945982;28;20413;-45
2022/08/10 07:56:43;;;;;;;6.83;4.50;;;;;;;;;;4947768;28;20671;-45
2022/08/10 07:59:10;;;;;;;7.03;4.17;;;;;;;;;;4948422;28;20599;-45
2022/08/10 08:01:40;;;;;;;9.60;3.80;;;;;;;;;;4944838;28;20193;-45
2022/08/10 08:04:08;;;;;;;13.43;7.07;;;;;;;;;;4945456;28;20182;-45
2022/08/10 08:06:35;;;;;;;7.33;4.00;;;;;;;;;;4954847;28;20528;-45
2022/08/10 08:09:02;;;;;;;7.63;4.87;;;;;;;;;;4955126;28;20587;-45
2022/08/10 08:11:29;;;;;;;9.80;5.73;;;;;;;;;;4951154;28;20730;-45
2022/08/10 08:13:55;;;;;;;10.07;4.90;;;;;;;;;;4954232;28;20179;-44
2022/08/10 08:16:23;;;;;;;10.03;4.83;;;;;;;;;;4957324;28;20642;-45
2022/08/10 08:18:51;;;;;;;8.10;4.43;;;;;;;;;;4953262;28;20260;-44
2022/08/10 08:21:18;;;;;;;8.37;4.17;;;;;;;;;;4952016;28;20183;-45
2022/08/10 08:23:45;;;;;;;7.60;4.03;;;;;;;;;;4955747;28;20178;-45
2022/08/10 08:26:12;;;;;;;8.03;4.03;;;;;;;;;;4954621;28;20178;-45
2022/08/10 08:28:38;;;;;;;8.20;3.93;;;;;;;;;;4953566;28;20285;-44
2022/08/10 08:31:04;;;;;;;7.60;3.83;;;;;;;;;;4954526;28;20262;-45
2022/08/10 08:33:31;;;;;;;5.50;4.03;;;;;;;;;;4955505;28;20245;-45
2022/08/10 08:35:59;;;;;;;7.87;3.80;;;;;;;;;;4955548;28;20287;-45
2022/08/10 08:38:26;;;;;;;7.57;3.87;;;;;;;;;;4953236;28;20186;-45
2022/08/10 08:41:13;;;;;;;7.87;3.50;;;;;;;;;;4951933;28;20286;-45
2022/08/10 08:43:41;;;;;;;6.87;3.57;;;;;;;;;;4944074;28;20194;-45
2022/08/10 08:46:11;;;;;;;6.27;3.70;;;;;;;;;;4951416;28;20371;-46
2022/08/10 08:48:49;;;;;;;7.20;4.10;;;;;;;;;;4952037;28;20256;-45
2022/08/10 08:51:35;;;;;;;11.37;3.97;;;;;;;;;;4962522;28;20619;-45
2022/08/10 08:54:04;;;;;;;5.43;3.63;;;;;;;;;;4941654;28;20190;-45
2022/08/10 08:56:49;;;;;;;12.03;3.77;;;;;;;;;;4954961;28;20501;-45
2022/08/10 08:59:23;;;;;;;3.57;3.07;;;;;;;;;;4952612;28;20975;-45
2022/08/10 09:01:58;;;;;;;7.13;3.23;;;;;;;;;;4951511;28;20753;-45
2022/08/10 09:04:30;;;;;;;4.87;3.17;;;;;;;;;;4955308;28;20181;-45
2022/08/10 09:07:06;;;;;;;7.20;3.50;;;;;;;;;;4953182;28;20174;-45
2022/08/10 09:09:37;;;;;;;10.70;3.50;;;;;;;;;;4951615;28;20752;-45
2022/08/10 09:12:06;;;;;;;6.27;3.20;;;;;;;;;;4953762;28;20330;-45
2022/08/10 09:14:38;;;;;;;5.73;2.67;;;;;;;;;;4952871;28;20204;-45
2022/08/10 09:17:23;;;;;;;4.83;2.80;;;;;;;;;;4952665;28;20776;-45
2022/08/10 09:19:52;;;;;;;4.20;2.70;;;;;;;;;;4955223;28;20281;-45
2022/08/10 09:22:31;;;;;;;7.23;2.97;;;;;;;;;;4952572;28;20197;-45
2022/08/10 09:25:00;;;;;;;168.00;34.53;;;;;;;;;;4951957;28;20186;-45
2022/08/10 09:27:30;;;;;;;9.60;2.93;;;;;;;;;;4954114;28;20646;-45
2022/08/10 09:30:00;;;;;;;7.80;2.53;;;;;;;;;;4953578;28;20508;-45
2022/08/10 09:32:32;;;;;;;4.43;2.43;;;;;;;;;;4950652;28;20780;-45
2022/08/10 09:34:58;;;;;;;58.47;11.40;;;;;;;;;;4951123;28;20790;-45
2022/08/10 09:37:31;;;;;;;6.03;2.40;;;;;;;;;;4955420;28;20712;-45
2022/08/10 09:40:00;;;;;;;9.50;2.30;;;;;;;;;;4953227;28;20668;-45
2022/08/10 09:42:37;;;;;;;104.03;16.40;;;;;;;;;;4951871;28;20405;-45
2022/08/10 09:45:08;;;;;;;38.17;8.73;;;;;;;;;;4952936;28;20268;-44
2022/08/10 09:47:41;;;;;;;6.70;2.17;;;;;;;;;;4953209;28;20182;-45
2022/08/10 09:50:22;;;;;;;4.43;2.30;;;;;;;;;;4951879;28;20446;-45
2022/08/10 09:52:48;;;;;;;4.27;1.97;;;;;;;;;;4985936;28;20839;-44
2022/08/10 09:55:14;;;;;;;5.00;2.50;;;;;;;;;;4953103;28;20174;-44
2022/08/10 09:57:40;;;;;;;7.83;2.23;;;;;;;;;;4950067;28;20705;-45
2022/08/10 10:00:11;;;;;;;4.10;2.37;;;;;;;;;;4956112;28;20179;-45
2022/08/10 10:02:56;;;;;;;5.53;2.30;;;;;;;;;;4952502;28;20182;-45
2022/08/10 10:05:32;;;;;;;4.73;2.33;;;;;;;;;;4950517;28;20565;-45
2022/08/10 10:08:13;;;;;;;4.90;2.10;;;;;;;;;;4953614;28;20226;-45
2022/08/10 10:10:59;;;;;;;4.60;2.10;;;;;;;;;;4966476;28;20206;-44
2022/08/10 10:14:01;;;;;;;4.77;2.10;;;;;;;;;;4952888;28;20561;-44
2022/08/10 10:16:33;;;;;;;5.93;2.23;;;;;;;;;;4929781;28;20695;-45
2022/08/10 10:19:18;;;;;;;4.47;1.97;;;;;;;;;;4949098;28;20767;-44
2022/08/10 10:21:55;;;;;;;3.67;1.97;;;;;;;;;;4951662;28;20637;-44
2022/08/10 10:24:31;;;;;;;4.53;2.07;;;;;;;;;;4953974;28;20894;-45
2022/08/10 10:27:05;;;;;;;5.40;2.07;;;;;;;;;;4951227;28;20179;-45
2022/08/10 10:29:54;;;;;;;8.00;1.90;;;;;;;;;;4952253;28;20551;-45
2022/08/10 10:32:26;;;;;;;2.50;1.77;;;;;;;;;;4954122;28;20202;-44
2022/08/10 10:35:01;;;;;;;2.93;1.70;;;;;;;;;;4953164;28;20469;-45
2022/08/10 10:37:28;;;;;;;3.63;1.90;;;;;;;;;;4953398;28;20448;-45
2022/08/10 10:39:56;;;;;;;4.63;1.93;;;;;;;;;;4954673;28;20171;-44
2022/08/10 10:42:22;;;;;;;4.23;1.87;;;;;;;;;;4953374;28;20205;-45
2022/08/10 10:45:04;;;;;;;3.67;1.77;;;;;;;;;;4953823;28;21038;-44
2022/08/10 10:47:48;;;;;;;7.70;1.97;;;;;;;;;;4956954;28;20179;-44
2022/08/10 10:50:22;;;;;;;4.03;2.00;;;;;;;;;;4952438;28;20530;-45
2022/08/10 10:53:01;;;;;;;10.47;2.23;;;;;;;;;;4954352;28;20567;-45
2022/08/10 10:55:36;;;;;;;4.17;1.90;;;;;;;;;;4955496;28;20175;-44
2022/08/10 10:58:17;;;;;;;3.93;2.03;;;;;;;;;;4954024;28;21298;-45
2022/08/10 11:00:49;;;;;;;4.30;1.87;;;;;;;;;;4957113;28;20527;-45
2022/08/10 11:03:36;;;;;;;6.07;1.90;;;;;;;;;;4953092;28;20634;-44
2022/08/10 11:06:20;;;;;;;3.10;1.63;;;;;;;;;;4957567;28;20182;-45
2022/08/10 11:08:50;;;;;;;5.70;2.00;;;;;;;;;;4959350;28;20213;-45
2022/08/10 11:11:20;;;;;;;3.70;1.60;;;;;;;;;;4956745;28;20209;-45
2022/08/10 11:14:24;;;;;;;2.40;2.00;;;;;;;;;;4957894;28;20268;-45
2022/08/10 11:16:59;;;;;;;4.13;1.67;;;;;;;;;;4917549;28;20175;-45
2022/08/10 11:19:34;;;;;;;2.00;1.70;;;;;;;;;;4914406;28;20178;-45
2022/08/10 11:22:10;;;;;;;2.90;1.60;;;;;;;;;;4937616;28;20297;-45
2022/08/10 11:24:38;;;;;;;3.33;1.70;;;;;;;;;;4960753;28;20568;-45
2022/08/10 11:27:04;;;;;;;3.07;1.80;;;;;;;;;;4959501;28;20490;-45
2022/08/10 11:29:37;;;;;;;4.40;2.00;;;;;;;;;;4956694;28;20301;-44
2022/08/10 11:32:06;;;;;;;4.37;1.93;;;;;;;;;;4955394;28;20515;-45
2022/08/10 11:34:52;;;;;;;4.23;1.80;;;;;;;;;;4958494;28;20175;-44
2022/08/10 11:37:29;;;;;;;4.00;1.90;;;;;;;;;;4959991;28;20278;-44
2022/08/10 11:40:04;;;;;;;4.40;2.00;;;;;;;;;;4957707;28;20548;-45
2022/08/10 11:42:41;;;;;;;2.83;1.80;;;;;;;;;;4956491;28;20170;-44
2022/08/10 11:45:07;;;;;;;5.33;1.83;;;;;;;;;;4958758;28;20308;-44
2022/08/10 11:47:37;;;;;;;7.03;2.17;;;;;;;;;;4956078;28;20540;-45
2022/08/10 11:50:08;;;;;;;4.60;1.90;;;;;;;;;;4955908;28;20400;-44
2022/08/10 11:52:38;;;;;;;3.67;1.57;;;;;;;;;;4959178;28;20240;-45
2022/08/10 11:55:13;;;;;;;4.00;1.60;;;;;;;;;;4957762;28;20484;-45
2022/08/10 11:57:39;;;;;;;3.43;1.87;;;;;;;;;;4955490;28;20212;-45
2022/08/10 12:00:06;;;;;;;4.87;1.73;;;;;;;;;;4958975;28;20390;-44
2022/08/10 12:02:35;;;;;;;3.20;1.70;;;;;;;;;;4958713;28;20432;-44
2022/08/10 12:05:21;;;;;;;4.83;1.60;;;;;;;;;;4956730;28;20682;-44
2022/08/10 12:07:49;;;;;;;4.30;1.57;;;;;;;;;;4954716;28;20285;-44
2022/08/10 12:10:18;;;;;;;4.50;2.00;;;;;;;;;;4956726;28;20664;-44
2022/08/10 12:12:53;;;;;;;2.97;1.47;;;;;;;;;;4955346;28;20169;-44
2022/08/10 12:15:22;;;;;;;2.87;1.70;;;;;;;;;;4955083;28;20349;-44
2022/08/10 12:17:54;;;;;;;4.57;1.60;;;;;;;;;;4958784;28;20176;-46
2022/08/10 12:20:34;;;;;;;4.83;1.87;;;;;;;;;;4954596;28;20201;-44
2022/08/10 12:23:07;;;;;;;4.87;1.60;;;;;;;;;;4955109;28;20362;-44
2022/08/10 12:25:52;;;;;;;2.20;1.53;;;;;;;;;;4958180;28;20327;-44
2022/08/10 12:28:21;;;;;;;4.10;1.70;;;;;;;;;;4957209;28;20187;-44
2022/08/10 12:30:53;;;;;;;3.20;1.60;;;;;;;;;;4953519;28;20984;-44
2022/08/10 12:33:22;;;;;;;3.37;1.70;;;;;;;;;;4958827;28;20175;-44
2022/08/10 12:36:27;;;;;;;2.33;1.47;;;;;;;;;;4958021;28;20179;-45
2022/08/10 12:39:12;;;;;;;5.50;1.50;;;;;;;;;;4948618;28;20202;-44
2022/08/10 12:41:50;;;;;;;4.53;1.63;;;;;;;;;;4948753;28;20286;-45
2022/08/10 12:44:27;;;;;;;2.50;1.53;;;;;;;;;;4957161;28;20701;-44
2022/08/10 12:46:56;;;;;;;4.37;1.53;;;;;;;;;;4954676;28;20409;-45
2022/08/10 12:49:31;;;;;;;3.97;1.40;;;;;;;;;;4955382;28;20615;-44
2022/08/10 12:51:59;;;;;;;3.63;1.50;;;;;;;;;;4958572;28;20223;-45
2022/08/10 12:54:25;;;;;;;4.13;1.57;;;;;;;;;;4958715;28;20267;-45
2022/08/10 12:56:58;;;;;;;5.67;1.60;;;;;;;;;;4966974;28;20729;-45
2022/08/10 12:59:26;;;;;;;4.00;1.70;;;;;;;;;;4955744;28;20891;-44
2022/08/10 13:01:53;;;;;;;2.67;1.40;;;;;;;;;;4956629;28;20178;-44
2022/08/10 13:04:25;;;;;;;7.37;1.60;;;;;;;;;;4954313;28;20189;-45
2022/08/10 13:06:51;;;;;;;2.73;1.53;;;;;;;;;;4954480;28;20852;-45
2022/08/10 13:09:21;;;;;;;3.93;1.63;;;;;;;;;;4957288;28;20546;-45
2022/08/10 13:11:58;;;;;;;4.50;1.60;;;;;;;;;;4956554;28;20526;-45
2022/08/10 13:14:43;;;;;;;3.07;1.30;;;;;;;;;;4951055;28;20401;-45
2022/08/10 13:17:09;;;;;;;2.87;1.40;;;;;;;;;;4957160;28;20695;-44
2022/08/10 13:19:42;;;;;;;4.53;1.40;;;;;;;;;;4956821;28;21071;-44
2022/08/10 13:22:09;;;;;;;2.63;1.40;;;;;;;;;;4951628;28;20182;-45
2022/08/10 13:24:44;;;;;;;7.07;1.60;;;;;;;;;;4955012;28;20192;-45
2022/08/10 13:27:13;;;;;;;4.73;1.80;;;;;;;;;;4953935;28;20692;-44
2022/08/10 13:29:48;;;;;;;4.23;1.50;;;;;;;;;;4983361;28;20189;-43
2022/08/10 13:32:19;;;;;;;3.50;1.53;;;;;;;;;;4957155;28;20208;-44
2022/08/10 13:34:46;;;;;;;3.00;1.63;;;;;;;;;;4954311;28;20485;-45
2022/08/10 13:37:17;;;;;;;2.47;1.70;;;;;;;;;;4968752;28;20206;-44
2022/08/10 13:39:45;;;;;;;3.00;1.60;;;;;;;;;;4955935;28;20257;-44
2022/08/10 13:42:13;;;;;;;5.63;1.70;;;;;;;;;;4956217;28;20182;-45
2022/08/10 13:44:52;;;;;;;3.17;1.70;;;;;;;;;;4953605;28;20741;-44
2022/08/10 13:47:19;;;;;;;3.83;1.63;;;;;;;;;;4954154;28;20186;-45
2022/08/10 13:49:47;;;;;;;4.83;1.77;;;;;;;;;;4955891;28;21063;-45
2022/08/10 13:52:20;;;;;;;3.60;2.00;;;;;;;;;;4952631;28;20814;-45
2022/08/10 13:54:47;;;;;;;2.23;1.70;;;;;;;;;;4954275;28;20221;-45
2022/08/10 13:57:14;;;;;;;2.70;1.67;;;;;;;;;;4955577;28;20896;-45
2022/08/10 13:59:40;;;;;;;4.17;1.60;;;;;;;;;;4952990;28;20186;-45
2022/08/10 14:02:07;;;;;;;4.30;1.63;;;;;;;;;;4952633;28;20178;-45
2022/08/10 14:04:33;;;;;;;3.53;1.90;;;;;;;;;;4956171;28;20179;-45
2022/08/10 14:06:59;;;;;;;2.17;1.73;;;;;;;;;;4952584;28;20182;-45
2022/08/10 14:09:37;;;;;;;2.47;1.90;;;;;;;;;;4952520;28;20179;-45
2022/08/10 14:12:03;;;;;;;4.43;2.00;;;;;;;;;;4953762;28;20598;-45
2022/08/10 14:14:31;;;;;;;5.40;1.70;;;;;;;;;;4956630;28;20181;-45
2022/08/10 14:16:58;;;;;;;2.37;1.90;;;;;;;;;;4955926;28;20178;-45
2022/08/10 14:19:26;;;;;;;2.50;1.60;;;;;;;;;;4953446;28;20182;-45
2022/08/10 14:21:52;;;;;;;3.27;1.67;;;;;;;;;;4952391;28;20280;-45
2022/08/10 14:24:20;;;;;;;2.03;1.57;;;;;;;;;;4954623;28;20360;-45
2022/08/10 14:26:46;;;;;;;5.33;1.80;;;;;;;;;;4959740;28;20253;-45
2022/08/10 14:29:13;;;;;;;4.23;1.83;;;;;;;;;;4951676;28;20182;-45
2022/08/10 14:31:40;;;;;;;4.80;1.60;;;;;;;;;;4952926;28;20212;-45
2022/08/10 14:34:08;;;;;;;2.87;1.50;;;;;;;;;;4953744;28;20174;-45
2022/08/10 14:36:37;;;;;;;2.17;1.67;;;;;;;;;;4952041;28;20216;-45
2022/08/10 14:39:04;;;;;;;3.50;2.10;;;;;;;;;;4953717;28;20619;-45
2022/08/10 14:41:31;;;;;;;1.67;1.57;;;;;;;;;;4959144;28;20820;-46
2022/08/10 14:44:03;;;;;;;3.73;1.57;;;;;;;;;;4954445;28;20801;-45
2022/08/10 14:46:30;;;;;;;2.43;1.80;;;;;;;;;;4954579;28;20546;-45
2022/08/10 14:48:57;;;;;;;4.47;1.73;;;;;;;;;;4957217;28;20197;-45
2022/08/10 14:51:26;;;;;;;3.17;1.60;;;;;;;;;;4954636;28;20210;-45
2022/08/10 14:53:58;;;;;;;4.27;1.50;;;;;;;;;;4953253;28;20182;-45
2022/08/10 14:56:30;;;;;;;4.53;1.60;;;;;;;;;;4958928;28;20716;-45